Montrose, Georgia
Current Conditions -  °F | °C
As of 5:35 PM on Monday 24 Nov 2014 (Local Time) from KDBN Reporting Station
Broken Clouds Broken Clouds  
Wind Chill: 68°   Ceiling: 1100
Heat Index: 68°   Visibility: 7mi
Dew Point: 68°   Wind: 7mph
Humidity: 100%   Direction: 190°S
Pressure: 29.88"   Gusts: NA
Location:  32.56°N, 83.15°W
Report Text: KDBN 242235Z AUTO 19006KT 7SM BKN011 BKN041 BKN075 20/20 A2988 RMK AO2
Loading
Personal Weather Stations






























Interactive Weather Map New forecast layout! Learn more

10-Day Weather Forecast

Advertisements
Track Severe Weather on mobile